createdAt,value
2023-02-24T00:02:22.227Z,3.98
2023-02-24T00:07:24.236Z,3.94
2023-02-24T00:12:26.237Z,3.95
2023-02-24T00:17:30.722Z,3.95
2023-02-24T00:22:32.773Z,3.95
2023-02-24T00:27:35.447Z,3.94
2023-02-24T00:32:37.743Z,3.95
2023-02-24T00:37:39.848Z,3.97
2023-02-24T00:42:42.898Z,3.96
2023-02-24T00:47:44.982Z,3.97
2023-02-24T00:52:48.679Z,3.96
2023-02-24T00:57:51.175Z,3.95
2023-02-24T01:02:53.207Z,3.95
2023-02-24T01:07:55.269Z,3.97
2023-02-24T01:12:57.342Z,3.98
2023-02-24T01:17:59.408Z,3.97
2023-02-24T01:23:03.618Z,3.98
2023-02-24T01:28:05.834Z,3.98
2023-02-24T01:33:08.438Z,3.99
2023-02-24T01:38:11.807Z,4.00
2023-02-24T01:43:14.021Z,4.00
2023-02-24T01:48:17.560Z,4.01
2023-02-24T01:53:20.226Z,4.01
2023-02-24T01:58:33.993Z,4.01
2023-02-24T02:03:42.168Z,4.01
2023-02-24T02:08:47.673Z,3.99
2023-02-24T02:13:52.021Z,4.04
2023-02-24T02:19:09.770Z,4.04
2023-02-24T02:24:38.047Z,4.05
2023-02-24T02:30:13.933Z,4.05
2023-02-24T02:35:46.797Z,4.04
2023-02-24T02:40:48.590Z,4.07
2023-02-24T02:45:59.880Z,4.08
2023-02-24T02:51:11.590Z,4.09
2023-02-24T02:56:24.501Z,4.09
2023-02-24T03:01:34.171Z,4.07
2023-02-24T03:06:48.047Z,4.09
2023-02-24T03:11:56.236Z,4.10
2023-02-24T03:16:59.814Z,4.11
2023-02-24T03:22:36.445Z,4.12
2023-02-24T03:27:44.788Z,4.14
2023-02-24T03:32:56.300Z,4.18
2023-02-24T03:37:59.856Z,4.19
2023-02-24T03:43:08.533Z,4.21
2023-02-24T03:48:14.970Z,4.22
2023-02-24T03:53:50.104Z,4.24
2023-02-24T03:59:01.626Z,4.27
2023-02-24T04:04:33.598Z,4.27
2023-02-24T04:09:57.927Z,4.30
2023-02-24T04:15:26.508Z,4.31
2023-02-24T04:20:33.314Z,4.32
2023-02-24T04:25:36.140Z,4.34
2023-02-24T04:30:48.714Z,4.37
2023-02-24T04:35:51.599Z,4.36
2023-02-24T04:40:53.774Z,4.38
2023-02-24T04:45:56.428Z,4.39
2023-02-24T04:51:06.723Z,4.40
2023-02-24T04:56:09.439Z,4.39
2023-02-24T05:01:11.890Z,4.41
2023-02-24T05:06:16.847Z,4.43
2023-02-24T05:11:19.686Z,4.43
2023-02-24T05:16:22.536Z,4.45
2023-02-24T05:21:36.470Z,4.46
2023-02-24T05:26:42.064Z,4.48
2023-02-24T05:31:44.400Z,4.47
2023-02-24T05:36:47.322Z,4.48
2023-02-24T05:41:50.619Z,4.49
2023-02-24T05:47:00.879Z,4.51
2023-02-24T05:52:10.354Z,4.52
2023-02-24T05:57:21.474Z,4.53
2023-02-24T06:02:28.014Z,4.52
2023-02-24T06:07:34.746Z,4.54
2023-02-24T06:12:40.157Z,4.54
2023-02-24T06:17:42.127Z,4.56
2023-02-24T06:22:44.201Z,4.57
2023-02-24T06:27:46.295Z,4.58
2023-02-24T06:32:49.485Z,4.58
2023-02-24T06:37:51.587Z,4.59
2023-02-24T06:42:57.395Z,4.60
2023-02-24T06:47:59.365Z,4.61
2023-02-24T06:53:03.108Z,4.57
2023-02-24T06:58:05.097Z,4.63
2023-02-24T07:03:17.066Z,4.64
2023-02-24T07:08:23.226Z,4.65
2023-02-24T07:13:29.015Z,4.67
2023-02-24T07:18:31.307Z,4.66
2023-02-24T07:23:33.343Z,4.68
2023-02-24T07:28:35.386Z,4.69
2023-02-24T07:33:39.193Z,4.71
2023-02-24T07:38:43.111Z,4.71
2023-02-24T07:43:46.494Z,4.72
2023-02-24T07:48:48.534Z,4.75
2023-02-24T07:53:59.320Z,4.77
2023-02-24T07:59:08.363Z,4.76
2023-02-24T08:04:13.007Z,4.81
2023-02-24T08:09:42.649Z,4.81
2023-02-24T08:14:51.242Z,4.85
2023-02-24T08:20:21.351Z,4.88
2023-02-24T08:25:36.065Z,4.90
2023-02-24T08:30:46.776Z,4.90
2023-02-24T08:36:01.562Z,4.93
2023-02-24T08:41:05.254Z,4.97
2023-02-24T08:46:21.608Z,4.98
2023-02-24T08:51:29.161Z,5.00
2023-02-24T08:56:35.235Z,5.04
2023-02-24T09:01:40.554Z,5.06
2023-02-24T09:07:10.843Z,5.08
2023-02-24T09:12:29.144Z,5.09
2023-02-24T09:17:41.512Z,5.12
2023-02-24T09:22:57.563Z,5.13
2023-02-24T09:28:17.656Z,5.15
2023-02-24T09:33:37.483Z,5.18
2023-02-24T09:39:00.100Z,5.20
2023-02-24T09:44:08.023Z,5.22
2023-02-24T09:49:17.817Z,5.25
2023-02-24T09:54:25.029Z,5.29
2023-02-24T09:59:36.641Z,5.30
2023-02-24T10:05:07.647Z,5.32
2023-02-24T10:10:39.588Z,5.38
2023-02-24T10:15:58.801Z,5.38
2023-02-24T10:21:30.985Z,5.41
2023-02-24T10:27:00.659Z,5.46
2023-02-24T10:32:24.260Z,5.49
2023-02-24T10:37:29.701Z,5.51
2023-02-24T10:42:34.664Z,5.53
2023-02-24T10:47:36.675Z,5.56
2023-02-24T10:53:06.755Z,5.60
2023-02-24T10:58:22.929Z,5.60
2023-02-24T11:03:41.910Z,5.62
2023-02-24T11:08:54.959Z,5.65
2023-02-24T11:14:21.146Z,5.68
2023-02-24T11:19:23.258Z,5.70
2023-02-24T11:24:26.042Z,5.74
2023-02-24T11:30:02.032Z,5.77
2023-02-24T11:35:12.638Z,5.81
2023-02-24T11:40:24.100Z,5.83
2023-02-24T11:45:29.794Z,5.86
2023-02-24T11:51:04.557Z,5.87
2023-02-24T11:56:28.230Z,5.88
2023-02-24T12:01:37.910Z,5.87
2023-02-24T12:06:48.775Z,5.88
2023-02-24T12:12:18.128Z,5.89
2023-02-24T12:17:37.164Z,5.91
2023-02-24T12:22:57.708Z,5.91
2023-02-24T12:28:11.530Z,5.93
2023-02-24T12:33:31.991Z,5.93
2023-02-24T12:39:07.189Z,5.96
2023-02-24T12:44:27.145Z,5.97
2023-02-24T12:49:54.623Z,5.97
2023-02-24T12:55:09.392Z,5.97
2023-02-24T13:00:22.015Z,5.97
2023-02-24T13:05:44.283Z,5.95
2023-02-24T13:11:16.308Z,5.96
2023-02-24T13:16:30.105Z,5.96
2023-02-24T13:21:33.987Z,5.92
2023-02-24T13:26:36.088Z,5.90
2023-02-24T13:31:50.735Z,5.87
2023-02-24T13:36:53.167Z,5.86
2023-02-24T13:42:20.621Z,5.84
2023-02-24T13:47:43.937Z,5.81
2023-02-24T13:53:09.316Z,5.82
2023-02-24T13:58:35.803Z,5.82
2023-02-24T14:03:41.610Z,5.77
2023-02-24T14:08:55.911Z,5.72
2023-02-24T14:13:59.474Z,5.65
2023-02-24T14:19:03.420Z,5.63
2023-02-24T14:24:13.693Z,5.59
2023-02-24T14:29:23.252Z,5.55
2023-02-24T14:34:28.337Z,5.51
2023-02-24T14:39:32.928Z,5.47
2023-02-24T14:44:41.983Z,5.45
2023-02-24T14:50:03.477Z,5.41
2023-02-24T14:55:19.080Z,5.38
2023-02-24T15:00:25.862Z,5.36
2023-02-24T15:05:28.475Z,5.33
2023-02-24T15:10:32.302Z,5.28
2023-02-24T15:15:39.596Z,5.25
2023-02-24T15:20:42.023Z,5.20
2023-02-24T15:25:46.924Z,5.15
2023-02-24T15:31:16.895Z,5.13
2023-02-24T15:36:22.867Z,5.08
2023-02-24T15:41:26.049Z,5.05
2023-02-24T15:46:34.776Z,4.99
2023-02-24T15:51:46.675Z,4.94
2023-02-24T15:56:49.431Z,4.91
2023-02-24T16:01:54.908Z,4.86
2023-02-24T16:06:58.614Z,4.81
2023-02-24T16:12:02.946Z,4.75
2023-02-24T16:17:09.663Z,4.69
2023-02-24T16:22:12.157Z,4.65
2023-02-24T16:27:17.457Z,4.57
2023-02-24T16:32:22.518Z,4.53
2023-02-24T16:37:29.596Z,4.46
2023-02-24T16:42:32.177Z,4.40
2023-02-24T16:47:35.688Z,4.35
2023-02-24T16:52:38.078Z,4.30
2023-02-24T16:57:41.205Z,4.19
2023-02-24T17:02:45.679Z,4.13
2023-02-24T17:07:50.556Z,4.05
2023-02-24T17:12:53.282Z,4.00
2023-02-24T17:17:55.798Z,3.93
2023-02-24T17:22:58.610Z,3.85
2023-02-24T17:28:00.538Z,3.76
2023-02-24T17:33:03.541Z,3.66
2023-02-24T17:38:15.826Z,3.59
2023-02-24T17:43:18.474Z,3.51
2023-02-24T17:48:22.840Z,3.43
2023-02-24T17:53:28.422Z,3.34
2023-02-24T17:58:31.808Z,3.27
2023-02-24T18:03:36.605Z,3.19
2023-02-24T18:08:40.831Z,3.13
2023-02-24T18:13:44.330Z,3.06
2023-02-24T18:18:47.663Z,2.99
2023-02-24T18:23:50.603Z,2.92
2023-02-24T18:28:54.180Z,2.86
2023-02-24T18:33:58.485Z,2.79
2023-02-24T18:39:09.138Z,2.75
2023-02-24T18:44:12.789Z,2.72
2023-02-24T18:49:15.748Z,2.67
2023-02-24T18:54:23.849Z,2.61
2023-02-24T18:59:26.974Z,2.58
2023-02-24T19:04:29.745Z,2.51
2023-02-24T19:09:34.294Z,2.47
2023-02-24T19:14:38.036Z,2.41
2023-02-24T19:19:41.106Z,2.35
2023-02-24T19:24:44.354Z,2.31
2023-02-24T19:29:47.474Z,2.27
2023-02-24T19:34:51.628Z,2.24
2023-02-24T19:39:55.892Z,2.22
2023-02-24T19:45:00.592Z,2.19
2023-02-24T19:50:03.599Z,2.18
2023-02-24T19:55:08.990Z,2.14
2023-02-24T20:00:13.172Z,2.14
2023-02-24T20:05:18.967Z,2.12
2023-02-24T20:10:22.128Z,2.12
2023-02-24T20:15:26.092Z,2.12
2023-02-24T20:20:29.381Z,2.10
2023-02-24T20:25:32.164Z,2.13
2023-02-24T20:30:37.341Z,2.14
2023-02-24T20:35:42.041Z,2.12
2023-02-24T20:40:46.169Z,2.11
2023-02-24T20:45:48.662Z,2.13
2023-02-24T20:50:51.917Z,2.14
2023-02-24T20:56:03.965Z,2.12
2023-02-24T21:01:08.896Z,2.11
2023-02-24T21:06:13.828Z,2.11
2023-02-24T21:11:16.892Z,2.11
2023-02-24T21:16:21.354Z,2.12
2023-02-24T21:21:24.013Z,2.11
2023-02-24T21:26:27.258Z,2.09
2023-02-24T21:31:31.224Z,2.11
2023-02-24T21:36:34.147Z,2.12
2023-02-24T21:41:36.266Z,2.13
2023-02-24T21:46:38.729Z,2.13
2023-02-24T21:51:42.386Z,2.12
2023-02-24T21:56:44.798Z,2.14
2023-02-24T22:01:47.582Z,2.15
2023-02-24T22:06:49.612Z,2.16
2023-02-24T22:11:52.091Z,2.17
2023-02-24T22:16:54.122Z,2.17
2023-02-24T22:21:59.318Z,2.17
2023-02-24T22:27:01.439Z,2.19
2023-02-24T22:32:05.356Z,2.19
2023-02-24T22:37:07.939Z,2.17
2023-02-24T22:42:10.031Z,2.20
2023-02-24T22:47:12.187Z,2.19
2023-02-24T22:52:17.033Z,2.22
2023-02-24T22:57:19.113Z,2.20
2023-02-24T23:02:21.156Z,2.23
2023-02-24T23:07:23.220Z,2.21
2023-02-24T23:12:27.269Z,2.22
2023-02-24T23:17:29.345Z,2.22
2023-02-24T23:22:31.443Z,2.24
2023-02-24T23:27:33.496Z,2.24
2023-02-24T23:32:36.991Z,2.24
2023-02-24T23:37:40.254Z,2.26
2023-02-24T23:42:43.010Z,2.26
2023-02-24T23:47:45.170Z,2.26
2023-02-24T23:52:47.476Z,2.25
2023-02-24T23:57:49.529Z,2.25
